Airfield :
LOGIN :

Register | Disclaimer

   EN    FR    IT 

 










Legend :    VFR   Marginal VFR   IFR   Intensive IFR   Very Intensive IFR
Visi :
Ceiling :
>= 8 km
>= 3000ft
5 to 8 km
1000 to 3000 ft
1500m to 5 km
500 to 1000 ft
800 to 1500m
200 to 500 ft
< 800m
< 200 ft
Symbols :   Thunderstorms  Fog  Heavy snow  Heavy precipitations  Wind > 20 kt
SIGMETs :     Misc.  Thunderstorms  Icing  Turbulence  Mountain Waves  Volcanic Ashes







- Airport Elevation : 55 ft
- Download approach charts


EGNO - Warton Preston

CURRENT METAR :
  • 191750Z 09006KT 9000 -RA SCT013 12/12 Q0995

EXPIRED METARs :
  • 191720Z 07007KT 7000 -RA SCT013 13/12 Q0996
  • 191650Z 06007KT 7000 -RA SCT013 BKN037 13/12 Q0996
  • 191620Z 07009KT 7000 -RA FEW009 SCT015 BKN043 13/12 Q0996
  • 191550Z 06007KT 2500 +RA FEW007 SCT011 BKN025 13/12 Q0997
  • 191520Z 07008KT 2500 RA FEW008 SCT011 BKN035 13/12 Q0997

Expired Forecast.
ATIS : +44 1772 856 060
No reported NOTAMs for that airfield.
1 SIGMET reported for the London FIR (EGTT) :
 
Severe turbulence
EGTT SIGMET 02 VALID 191720/192020 EGRR
EGTT LONDON FIR SEV TURB FCST WI N5210 W00549 - N4946 W00315 - N4909 W00623 - N5100 W00800 - N5210 W00549 SFC/FL060 MOV E 20KT WKN=



MET'MAP, your aeronautical weather chart ! - Copyright ORBIFLY December 2007 - Disclaimer

ORBIFLY MET'MAP TEAM :

Programming & Development : Alexandra Zaïnal
Concept & Development : Baudouin d'Aumeries
Co-Development & Prog : Marc-Olivier Méhu
Technical & hardware support : Manuel Goepfert

Contact : metmap@orbifly.com




SOURCES & CREDITS :

   NOAA